Pulpca — PHMT — position and weather

sailwx.info

Track history (hours):
 
Tides and Currents Weather Stations Pressure Air Temp Water Temp Dewpoint Dewpoint Depression Visibility Wind Speed Wind Dir Waves Ship Positions

Pulpca

Last reported at 2015-Aug-31 02:33 UTC. Time now 2015-Aug-31 02:38 UTC.
Position N 59°53' E 025°49'.

Length 205 m; draft 6.5 m.

Type: Cargo ship. MMSI: 245097000.

Date/timePositionNaut miles runAvg speedWind from/ knotsBaromVisibWave heightAir tempDewpointWater temp
2015-Aug-31 02:33N 59°53' E 025°49'1312.7
2015-Aug-31 01:33N 59°50' E 025°24'1412.6
2015-Aug-31 00:26N 59°48' E 024°57'1212.6
2015-Aug-30 23:30N 59°45' E 024°34'1612.5
2015-Aug-30 22:13N 59°43' E 024°02'812.5
2015-Aug-30 21:33N 59°43' E 023°46'1312.6
2015-Aug-30 20:33N 59°42' E 023°21'14 3.5
2015-Aug-30 16:32N 59°49' E 022°57'22320.0
2015-Aug-30 05:21N 56°53' E 018°35'8521.2
2015-Aug-30 01:20N 55°59' E 016°36'1721.4
2015-Aug-30 00:32N 55°48' E 016°12'2020.9
2015-Aug-29 23:34N 55°39' E 015°39'2121.3
2015-Aug-29 22:33N 55°31' E 015°05'2121.0
2015-Aug-29 21:33N 55°19' E 014°34'2221.6
2015-Aug-29 20:33N 55°02' E 014°10'2121.3
2015-Aug-29 19:33N 54°54' E 013°35'2121.5
2015-Aug-29 18:33N 54°47' E 013°00'2120.7
2015-Aug-29 17:33N 54°38' E 012°27'2020.6
2015-Aug-29 16:33N 54°23' E 012°04'2121.2
2015-Aug-29 15:34N 54°14' E 011°32'2121.1
2015-Aug-29 14:33N 54°02' E 011°02'7 0.6
2015-Aug-29 02:33N 53°58' E 010°53'1515.2
2015-Aug-29 01:33N 54°08' E 011°12'1717.2
2015-Aug-29 00:33N 54°17' E 011°36'1717.4
2015-Aug-28 23:33N 54°26' E 012°02'2016.8
2015-Aug-28 22:20N 54°40' E 012°27'3217.8
2015-Aug-28 20:33N 54°54' E 013°17'1817.9
2015-Aug-28 19:33N 54°60' E 013°46'1817.5
2015-Aug-28 18:33N 55°09' E 014°12'1817.8
2015-Aug-28 17:33N 55°23' E 014°32'1818.1
2015-Aug-28 16:33N 55°33' E 014°59'1817.8
2015-Aug-28 15:33N 55°42' E 015°26'33917.4
2015-Aug-27 20:07N 59°39' E 022°57'713.3
2015-Aug-27 19:33N 59°47' E 023°00'3 0.2
2015-Aug-27 03:32N 59°49' E 022°56'33517.6
2015-Aug-26 08:29N 55°44' E 015°47'1718.8
2015-Aug-26 07:33N 55°36' E 015°21'2222.3
2015-Aug-26 06:33N 55°25' E 014°46'1313.0
2015-Aug-26 05:34N 55°16' E 014°29'1818.5
2015-Aug-26 04:34N 55°02' E 014°08'1818.2
2015-Aug-26 03:34N 54°55' E 013°39'3918.3
2015-Aug-26 01:25N 54°41' E 012°36'1618.3
2015-Aug-26 00:33N 54°30' E 012°16'1818.0
2015-Aug-25 23:33N 54°20' E 011°50'1919.1
2015-Aug-25 22:33N 54°10' E 011°22'21 0.5
2015-Aug-24 04:13N 53°58' E 010°54'1116.8
2015-Aug-24 03:33N 54°05' E 011°07'2120.6
2015-Aug-24 02:33N 54°17' E 011°36'2120.6
2015-Aug-24 01:33N 54°26' E 012°08'1919.1
2015-Aug-24 00:33N 54°41' E 012°29'1919.8
2015-Aug-23 23:34N 54°48' E 013°01'2120.6
2015-Aug-23 22:33N 54°46' E 013°37'2120.9
2015-Aug-23 21:33N 54°40' E 014°11'2120.5
2015-Aug-23 20:33N 54°40' E 014°47'2120.8
2015-Aug-23 19:33N 54°43' E 015°22'2120.8
2015-Aug-23 18:33N 54°46' E 015°58'2120.6
2015-Aug-23 17:33N 54°49' E 016°33'2020.5
2015-Aug-23 16:33N 54°53' E 017°08'2120.7
2015-Aug-23 15:33N 54°56' E 017°44'2020.1
2015-Aug-23 14:33N 54°57' E 018°19'2019.9
2015-Aug-23 13:33N 54°51' E 018°52'1818.1
2015-Aug-23 12:33N 54°33' E 018°50'1010.3
2015-Aug-23 11:33N 54°32' E 018°32'0 0.0
2015-Aug-23 10:31N 54°32' E 018°32'0 0.0
2015-Aug-23 09:28N 54°32' E 018°32'0 0.0
2015-Aug-23 08:31N 54°32' E 018°32'0 0.0
2015-Aug-23 07:31N 54°32' E 018°32'0 0.3
2015-Aug-23 06:33N 54°32' E 018°32'1312.7
2015-Aug-23 05:33N 54°36' E 018°53'2020.4
2015-Aug-23 04:33N 54°55' E 019°04'2120.9
2015-Aug-23 03:33N 55°15' E 019°16'2120.8
2015-Aug-23 02:33N 55°35' E 019°27'2120.5
2015-Aug-23 01:33N 55°55' E 019°37'2120.7
2015-Aug-23 00:33N 56°14' E 019°48'2120.7
2015-Aug-22 23:33N 56°34' E 019°60'2120.7
2015-Aug-22 22:33N 56°54' E 020°12'2120.8
2015-Aug-22 21:31N 57°14' E 020°25'2021.0
2015-Aug-22 20:33N 57°33' E 020°37'2320.9
2015-Aug-22 19:26N 57°55' E 020°51'1921.0
2015-Aug-22 18:31N 58°13' E 021°03'8320.1
2015-Aug-22 14:24N 59°25' E 022°23'2020.8
2015-Aug-22 13:27N 59°37' E 022°54'12 1.5
2015-Aug-22 05:18N 59°49' E 022°57'0 0.0
2015-Aug-22 04:33N 59°49' E 022°57'0 0.0
2015-Aug-22 03:33N 59°49' E 022°57'7 6.9
2015-Aug-22 02:33N 59°43' E 023°04'2017.4
2015-Aug-22 01:25N 59°27' E 022°42'3818.6
2015-Aug-21 23:22N 59°02' E 021°46'5218.5
2015-Aug-21 20:33N 58°21' E 020°44'4118.8
2015-Aug-21 18:22N 57°49' E 019°55'1518.8
2015-Aug-21 17:33N 57°38' E 019°36'1818.3
2015-Aug-21 16:33N 57°24' E 019°15'1818.3
2015-Aug-21 15:33N 57°09' E 018°54'1818.3
2015-Aug-21 14:33N 56°55' E 018°34'1818.4
2015-Aug-21 13:33N 56°41' E 018°12'1918.8
2015-Aug-21 12:33N 56°29' E 017°45'1918.9
2015-Aug-21 11:34N 56°17' E 017°18'1918.7
2015-Aug-21 10:33N 56°06' E 016°52'2018.7
2015-Aug-21 09:31N 55°55' E 016°23'1818.8
2015-Aug-21 08:34N 55°45' E 015°56'1918.7
2015-Aug-21 07:34N 55°37' E 015°26'2222.4
2015-Aug-21 06:34N 55°27' E 014°51'1413.7
2015-Aug-21 05:33N 55°18' E 014°33'1918.9
2015-Aug-21 04:34N 55°03' E 014°12'1918.7
2015-Aug-21 03:33N 54°55' E 013°42'1919.0
2015-Aug-21 02:34N 54°48' E 013°11'  
Track history (hours):
 
Tides and Currents Weather Stations Pressure Air Temp Water Temp Dewpoint Dewpoint Depression Visibility Wind Speed Wind Dir Waves Ship Positions

Pulpca

Last reported at 2015-Aug-31 02:33 UTC. Time now 2015-Aug-31 02:38 UTC.
Position N 59°53' E 025°49'.

Length 205 m; draft 6.5 m.

Type: Cargo ship. MMSI: 245097000.

Date/timePositionNaut miles runAvg speedWind from/ knotsBaromVisibWave heightAir tempDewpointWater temp
2015-Aug-31 02:33N 59°53' E 025°49'1312.7
2015-Aug-31 01:33N 59°50' E 025°24'1412.6
2015-Aug-31 00:26N 59°48' E 024°57'1212.6
2015-Aug-30 23:30N 59°45' E 024°34'1612.5
2015-Aug-30 22:13N 59°43' E 024°02'812.5
2015-Aug-30 21:33N 59°43' E 023°46'1312.6
2015-Aug-30 20:33N 59°42' E 023°21'14 3.5
2015-Aug-30 16:32N 59°49' E 022°57'22320.0
2015-Aug-30 05:21N 56°53' E 018°35'8521.2
2015-Aug-30 01:20N 55°59' E 016°36'1721.4
2015-Aug-30 00:32N 55°48' E 016°12'2020.9
2015-Aug-29 23:34N 55°39' E 015°39'2121.3
2015-Aug-29 22:33N 55°31' E 015°05'2121.0
2015-Aug-29 21:33N 55°19' E 014°34'2221.6
2015-Aug-29 20:33N 55°02' E 014°10'2121.3
2015-Aug-29 19:33N 54°54' E 013°35'2121.5
2015-Aug-29 18:33N 54°47' E 013°00'2120.7
2015-Aug-29 17:33N 54°38' E 012°27'2020.6
2015-Aug-29 16:33N 54°23' E 012°04'2121.2
2015-Aug-29 15:34N 54°14' E 011°32'2121.1
2015-Aug-29 14:33N 54°02' E 011°02'7 0.6
2015-Aug-29 02:33N 53°58' E 010°53'1515.2
2015-Aug-29 01:33N 54°08' E 011°12'1717.2
2015-Aug-29 00:33N 54°17' E 011°36'1717.4
2015-Aug-28 23:33N 54°26' E 012°02'2016.8
2015-Aug-28 22:20N 54°40' E 012°27'3217.8
2015-Aug-28 20:33N 54°54' E 013°17'1817.9
2015-Aug-28 19:33N 54°60' E 013°46'1817.5
2015-Aug-28 18:33N 55°09' E 014°12'1817.8
2015-Aug-28 17:33N 55°23' E 014°32'1818.1
2015-Aug-28 16:33N 55°33' E 014°59'1817.8
2015-Aug-28 15:33N 55°42' E 015°26'33917.4
2015-Aug-27 20:07N 59°39' E 022°57'713.3
2015-Aug-27 19:33N 59°47' E 023°00'3 0.2
2015-Aug-27 03:32N 59°49' E 022°56'33517.6
2015-Aug-26 08:29N 55°44' E 015°47'1718.8
2015-Aug-26 07:33N 55°36' E 015°21'2222.3
2015-Aug-26 06:33N 55°25' E 014°46'1313.0
2015-Aug-26 05:34N 55°16' E 014°29'1818.5
2015-Aug-26 04:34N 55°02' E 014°08'1818.2
2015-Aug-26 03:34N 54°55' E 013°39'3918.3
2015-Aug-26 01:25N 54°41' E 012°36'1618.3
2015-Aug-26 00:33N 54°30' E 012°16'1818.0
2015-Aug-25 23:33N 54°20' E 011°50'1919.1
2015-Aug-25 22:33N 54°10' E 011°22'21 0.5
2015-Aug-24 04:13N 53°58' E 010°54'1116.8
2015-Aug-24 03:33N 54°05' E 011°07'2120.6
2015-Aug-24 02:33N 54°17' E 011°36'2120.6
2015-Aug-24 01:33N 54°26' E 012°08'1919.1
2015-Aug-24 00:33N 54°41' E 012°29'1919.8
2015-Aug-23 23:34N 54°48' E 013°01'2120.6
2015-Aug-23 22:33N 54°46' E 013°37'2120.9
2015-Aug-23 21:33N 54°40' E 014°11'2120.5
2015-Aug-23 20:33N 54°40' E 014°47'2120.8
2015-Aug-23 19:33N 54°43' E 015°22'2120.8
2015-Aug-23 18:33N 54°46' E 015°58'2120.6
2015-Aug-23 17:33N 54°49' E 016°33'2020.5
2015-Aug-23 16:33N 54°53' E 017°08'2120.7
2015-Aug-23 15:33N 54°56' E 017°44'2020.1
2015-Aug-23 14:33N 54°57' E 018°19'2019.9
2015-Aug-23 13:33N 54°51' E 018°52'1818.1
2015-Aug-23 12:33N 54°33' E 018°50'1010.3
2015-Aug-23 11:33N 54°32' E 018°32'0 0.0
2015-Aug-23 10:31N 54°32' E 018°32'0 0.0
2015-Aug-23 09:28N 54°32' E 018°32'0 0.0
2015-Aug-23 08:31N 54°32' E 018°32'0 0.0
2015-Aug-23 07:31N 54°32' E 018°32'0 0.3
2015-Aug-23 06:33N 54°32' E 018°32'1312.7
2015-Aug-23 05:33N 54°36' E 018°53'2020.4
2015-Aug-23 04:33N 54°55' E 019°04'2120.9
2015-Aug-23 03:33N 55°15' E 019°16'2120.8
2015-Aug-23 02:33N 55°35' E 019°27'2120.5
2015-Aug-23 01:33N 55°55' E 019°37'2120.7
2015-Aug-23 00:33N 56°14' E 019°48'2120.7
2015-Aug-22 23:33N 56°34' E 019°60'2120.7
2015-Aug-22 22:33N 56°54' E 020°12'2120.8
2015-Aug-22 21:31N 57°14' E 020°25'2021.0
2015-Aug-22 20:33N 57°33' E 020°37'2320.9
2015-Aug-22 19:26N 57°55' E 020°51'1921.0
2015-Aug-22 18:31N 58°13' E 021°03'8320.1
2015-Aug-22 14:24N 59°25' E 022°23'2020.8
2015-Aug-22 13:27N 59°37' E 022°54'12 1.5
2015-Aug-22 05:18N 59°49' E 022°57'0 0.0
2015-Aug-22 04:33N 59°49' E 022°57'0 0.0
2015-Aug-22 03:33N 59°49' E 022°57'7 6.9
2015-Aug-22 02:33N 59°43' E 023°04'2017.4
2015-Aug-22 01:25N 59°27' E 022°42'3818.6
2015-Aug-21 23:22N 59°02' E 021°46'5218.5
2015-Aug-21 20:33N 58°21' E 020°44'4118.8
2015-Aug-21 18:22N 57°49' E 019°55'1518.8
2015-Aug-21 17:33N 57°38' E 019°36'1818.3
2015-Aug-21 16:33N 57°24' E 019°15'1818.3
2015-Aug-21 15:33N 57°09' E 018°54'1818.3
2015-Aug-21 14:33N 56°55' E 018°34'1818.4
2015-Aug-21 13:33N 56°41' E 018°12'1918.8
2015-Aug-21 12:33N 56°29' E 017°45'1918.9
2015-Aug-21 11:34N 56°17' E 017°18'1918.7
2015-Aug-21 10:33N 56°06' E 016°52'2018.7
2015-Aug-21 09:31N 55°55' E 016°23'1818.8
2015-Aug-21 08:34N 55°45' E 015°56'1918.7
2015-Aug-21 07:34N 55°37' E 015°26'2222.4
2015-Aug-21 06:34N 55°27' E 014°51'1413.7
2015-Aug-21 05:33N 55°18' E 014°33'1918.9
2015-Aug-21 04:34N 55°03' E 014°12'1918.7
2015-Aug-21 03:33N 54°55' E 013°42'1919.0
2015-Aug-21 02:34N 54°48' E 013°11'  

Dump ship's entire track history